Time;durP1;ratioP1;P1;durP2;ratioP2;P2;SDS_P1;SDS_P2;PMS_P1;PMS_P2;Temp;Humidity;BMP_temperature;BMP_pressure;BME280_temperature;BME280_humidity;BME280_pressure;Samples;Min_cycle;Max_cycle;Signal;HPM_P1;HPM_P2
2021/03/18 00:04:46;;;;;;;2.85;1.85;;;2.10;99.90;;;;;;20991541;28;19936;-77
2021/03/18 00:14:47;;;;;;;3.10;1.88;;;2.20;99.90;;;;;;20990651;28;20032;-78
2021/03/18 00:24:48;;;;;;;6.97;2.33;;;2.10;99.90;;;;;;20990185;28;20033;-78
2021/03/18 00:34:49;;;;;;;1.90;1.20;;;2.20;99.90;;;;;;20990390;28;20559;-77
2021/03/18 00:44:51;;;;;;;4.93;2.80;;;2.10;99.90;;;;;;20989674;28;20285;-78
2021/03/18 00:54:52;;;;;;;7.43;3.83;;;2.20;99.90;;;;;;20978606;28;20044;-79
2021/03/18 01:04:53;;;;;;;7.38;3.90;;;2.10;99.90;;;;;;21003924;28;20029;-78
2021/03/18 01:14:54;;;;;;;;;;;1.80;99.90;;;;;;21003584;28;20029;-78
2021/03/18 01:24:55;;;;;;;8.43;3.50;;;1.80;99.90;;;;;;21002205;28;19915;-78
2021/03/18 01:34:56;;;;;;;10.00;2.90;;;1.70;99.90;;;;;;21002748;28;20306;-78
2021/03/18 01:44:56;;;;;;;;;;;1.60;99.90;;;;;;21001631;28;20036;-78
2021/03/18 01:54:58;;;;;;;7.85;2.25;;;1.80;99.90;;;;;;21002456;28;19944;-78
2021/03/18 02:04:59;;;;;;;2.78;1.80;;;1.70;99.90;;;;;;20999853;28;20032;-78
2021/03/18 02:15:00;;;;;;;4.03;2.17;;;1.50;99.90;;;;;;20999987;28;20025;-78
2021/03/18 02:25:13;;;;;;;6.43;3.05;;;1.10;99.90;;;;;;20998380;28;20069;-77
2021/03/18 02:35:26;;;;;;;5.18;2.30;;;0.80;99.90;;;;;;20998388;28;20121;-78
2021/03/18 02:45:33;;;;;;;4.10;2.30;;;0.70;99.90;;;;;;20995999;28;20040;-78
2021/03/18 02:55:42;;;;;;;5.63;3.13;;;0.90;99.90;;;;;;20995307;28;20523;-79
2021/03/18 03:05:50;;;;;;;5.57;1.90;;;1.10;99.90;;;;;;20999112;28;20497;-77
2021/03/18 03:15:51;;;;;;;4.72;1.67;;;0.80;99.90;;;;;;20998112;28;20123;-78
2021/03/18 03:25:53;;;;;;;4.72;2.40;;;0.80;99.90;;;;;;20996230;28;20394;-77
2021/03/18 03:35:55;;;;;;;3.90;2.42;;;0.80;99.90;;;;;;20994137;28;20056;-78
2021/03/18 03:45:55;;;;;;;4.30;2.40;;;0.80;99.90;;;;;;21009746;28;20040;-79
2021/03/18 03:56:09;;;;;;;5.43;2.65;;;1.00;99.90;;;;;;20997179;28;20020;-78
2021/03/18 04:06:10;;;;;;;4.25;1.90;;;1.10;99.90;;;;;;20996111;28;20032;-78
2021/03/18 04:16:12;;;;;;;4.07;1.98;;;1.10;99.90;;;;;;20994805;28;20511;-78
2021/03/18 04:26:14;;;;;;;5.47;2.03;;;1.00;99.90;;;;;;21003212;28;20134;-77
2021/03/18 04:36:15;;;;;;;4.68;2.13;;;0.90;99.90;;;;;;20998902;28;20025;-78
2021/03/18 04:46:16;;;;;;;9.07;2.30;;;1.00;99.90;;;;;;20989813;28;20033;-78
2021/03/18 04:56:19;;;;;;;3.22;1.88;;;0.80;99.90;;;;;;20971605;28;20032;-79
2021/03/18 05:06:25;;;;;;;7.03;3.00;;;0.50;99.90;;;;;;20987690;28;20064;-78
2021/03/18 05:16:26;;;;;;;8.35;2.60;;;0.60;99.90;;;;;;20989048;28;20021;-78
2021/03/18 05:26:27;;;;;;;2.78;2.00;;;0.80;99.90;;;;;;20987162;28;20033;-77
2021/03/18 05:36:28;;;;;;;5.15;2.03;;;0.90;99.90;;;;;;20986003;28;20025;-76
2021/03/18 05:46:29;;;;;;;3.83;2.03;;;0.80;99.90;;;;;;20999646;28;20033;-77
2021/03/18 05:56:30;;;;;;;;;;;1.00;99.90;;;;;;21001765;28;20033;-77
2021/03/18 06:06:32;;;;;;;6.80;2.85;;;1.10;99.90;;;;;;20999429;28;20449;-77
2021/03/18 06:16:35;;;;;;;2.65;2.15;;;1.10;99.90;;;;;;20999336;28;20058;-77
2021/03/18 06:26:37;;;;;;;6.20;2.70;;;1.20;99.90;;;;;;20998803;28;20038;-76
2021/03/18 06:36:38;;;;;;;5.22;3.13;;;1.40;99.90;;;;;;20998213;28;20037;-76
2021/03/18 06:46:39;;;;;;;;;;;1.30;99.90;;;;;;20995943;28;20082;-77
2021/03/18 06:56:40;;;;;;;9.88;4.28;;;1.50;99.90;;;;;;21005662;28;20480;-79
2021/03/18 07:06:40;;;;;;;;;;;2.10;99.90;;;;;;21021504;28;20029;-78
2021/03/18 07:16:47;;;;;;;13.18;6.05;;;2.20;99.90;;;;;;21013104;28;19935;-80
2021/03/18 07:26:48;;;;;;;9.43;4.65;;;2.70;99.90;;;;;;21027712;28;20461;-78
2021/03/18 07:36:49;;;;;;;8.18;4.38;;;2.90;99.90;;;;;;21027356;28;20025;-79
2021/03/18 07:46:51;;;;;;;6.80;3.70;;;3.20;99.90;;;;;;21010081;28;20090;-79
2021/03/18 07:56:54;;;;;;;12.05;4.22;;;4.50;99.90;;;;;;21028946;28;20025;-80
2021/03/18 08:06:55;;;;;;;8.05;5.05;;;4.30;99.90;;;;;;21025470;28;20032;-80
2021/03/18 08:16:56;;;;;;;9.27;4.27;;;4.60;99.90;;;;;;21024629;28;20036;-79
2021/03/18 08:27:03;;;;;;;7.13;4.13;;;6.70;99.90;;;;;;21023592;28;20275;-80
2021/03/18 08:37:04;;;;;;;9.05;4.90;;;7.60;99.90;;;;;;21026182;28;20070;-80
2021/03/18 08:47:10;;;;;;;12.53;5.40;;;7.30;99.90;;;;;;21026931;28;20028;-81
2021/03/18 08:57:13;;;;;;;10.35;5.15;;;6.60;99.90;;;;;;21048875;28;20028;-80
2021/03/18 09:07:19;;;;;;;8.30;5.32;;;7.10;99.90;;;;;;21050009;28;20029;-80
2021/03/18 09:17:23;;;;;;;8.30;5.00;;;7.40;99.90;;;;;;21033309;28;20020;-80
2021/03/18 09:27:24;;;;;;;13.23;6.20;;;7.00;99.90;;;;;;21044595;28;20028;-80
2021/03/18 09:37:33;;;;;;;12.68;5.20;;;6.50;99.90;;;;;;21040612;28;20059;-81
2021/03/18 09:47:36;;;;;;;12.25;6.47;;;6.50;99.90;;;;;;21046389;28;20080;-80
2021/03/18 09:57:37;;;;;;;12.70;6.00;;;5.90;99.90;;;;;;21052381;28;20062;-79
2021/03/18 10:07:38;;;;;;;11.37;5.23;;;5.20;99.90;;;;;;21051316;28;20032;-80
2021/03/18 10:17:42;;;;;;;11.43;5.63;;;5.30;99.90;;;;;;21034923;28;20048;-80
2021/03/18 10:27:44;;;;;;;12.57;6.32;;;5.10;99.90;;;;;;20986378;28;20033;-79
2021/03/18 10:37:46;;;;;;;11.70;5.68;;;5.00;99.90;;;;;;21016157;28;20668;-78
2021/03/18 10:47:47;;;;;;;13.43;5.85;;;5.40;99.90;;;;;;20940459;28;20029;-79
2021/03/18 10:58:00;;;;;;;10.13;5.40;;;5.10;99.90;;;;;;20919919;28;20037;-78
2021/03/18 11:08:01;;;;;;;12.32;6.10;;;5.40;99.90;;;;;;20933238;28;20037;-78
2021/03/18 11:18:07;;;;;;;11.53;5.10;;;5.20;99.90;;;;;;20962459;28;20091;-80
2021/03/18 11:28:14;;;;;;;10.18;4.88;;;5.20;99.90;;;;;;20929565;28;20091;-77
2021/03/18 11:38:16;;;;;;;8.68;4.75;;;5.90;99.90;;;;;;20923091;28;20037;-80
2021/03/18 11:48:17;;;;;;;8.35;4.38;;;6.80;99.90;;;;;;20977304;28;20036;-76
2021/03/18 11:58:19;;;;;;;8.43;4.63;;;6.40;99.90;;;;;;20967261;28;20043;-78
2021/03/18 12:08:19;;;;;;;6.93;2.92;;;6.60;99.90;;;;;;20935126;28;20037;-79
2021/03/18 12:18:21;;;;;;;5.60;3.17;;;7.10;99.90;;;;;;20960876;28;20036;-80
2021/03/18 12:28:22;;;;;;;;;;;6.70;99.90;;;;;;21005825;28;20111;-77
2021/03/18 12:38:23;;;;;;;6.20;4.10;;;7.60;99.90;;;;;;21002613;28;19919;-80
2021/03/18 12:48:24;;;;;;;10.55;4.60;;;7.30;99.90;;;;;;20996927;28;20036;-80
2021/03/18 12:58:27;;;;;;;12.30;5.20;;;7.50;99.90;;;;;;21035055;28;20368;-78
2021/03/18 13:08:27;;;;;;;10.63;4.90;;;7.40;99.90;;;;;;21034418;28;20390;-79
2021/03/18 13:18:28;;;;;;;13.17;4.80;;;7.50;99.90;;;;;;21035419;28;20040;-80
2021/03/18 13:28:30;;;;;;;25.73;14.33;;;7.20;99.90;;;;;;21033602;28;20075;-80
2021/03/18 13:38:33;;;;;;;;;;;6.90;99.90;;;;;;21036931;28;20032;-80
2021/03/18 13:48:34;;;;;;;9.40;4.50;;;6.90;99.90;;;;;;21040726;28;19944;-79
2021/03/18 13:58:35;;;;;;;6.70;3.58;;;6.20;99.90;;;;;;21032623;28;20066;-78
2021/03/18 14:08:36;;;;;;;9.73;5.17;;;6.10;99.90;;;;;;21034370;28;20479;-78
2021/03/18 14:18:37;;;;;;;5.47;3.17;;;7.00;99.90;;;;;;21032786;28;20039;-80
2021/03/18 14:28:38;;;;;;;4.77;2.90;;;6.90;99.90;;;;;;21027961;28;20032;-79
2021/03/18 14:38:39;;;;;;;6.33;3.00;;;7.30;99.90;;;;;;21027829;28;20042;-79
2021/03/18 14:48:40;;;;;;;3.97;2.53;;;7.50;99.90;;;;;;21025845;28;20465;-80
2021/03/18 14:58:41;;;;;;;6.10;2.70;;;8.20;99.90;;;;;;21025628;28;20033;-79
2021/03/18 15:08:42;;;;;;;6.40;3.00;;;7.40;99.90;;;;;;21026694;28;20135;-78
2021/03/18 15:18:42;;;;;;;7.17;3.10;;;6.50;99.90;;;;;;21025213;28;20033;-80
2021/03/18 15:28:43;;;;;;;3.90;2.40;;;5.40;99.90;;;;;;21025034;28;20033;-78
2021/03/18 15:38:44;;;;;;;7.13;2.30;;;5.40;99.90;;;;;;21026453;28;20028;-80
2021/03/18 15:48:45;;;;;;;3.73;2.47;;;5.40;99.90;;;;;;21031717;28;20035;-78
2021/03/18 15:58:47;;;;;;;4.07;2.00;;;5.30;99.90;;;;;;21020183;28;20028;-79
2021/03/18 16:08:48;;;;;;;;;;;5.10;99.90;;;;;;21020032;28;20502;-80
2021/03/18 16:18:48;;;;;;;3.22;2.10;;;5.10;99.90;;;;;;21021469;28;20022;-78
2021/03/18 16:28:50;;;;;;;3.60;2.43;;;4.80;99.90;;;;;;21018710;28;20048;-80
2021/03/18 16:38:51;;;;;;;;;;;4.80;99.90;;;;;;21021789;28;20032;-80
2021/03/18 16:48:52;;;;;;;3.85;2.47;;;4.70;99.90;;;;;;21020625;28;19908;-80
2021/03/18 16:58:53;;;;;;;4.67;2.37;;;4.60;99.90;;;;;;21017405;28;20116;-80
2021/03/18 17:08:54;;;;;;;3.00;1.58;;;4.70;99.90;;;;;;21017172;28;20043;-80
2021/03/18 17:18:55;;;;;;;4.00;2.33;;;4.70;99.90;;;;;;21016474;28;20041;-78
2021/03/18 17:28:56;;;;;;;5.20;3.17;;;4.00;99.90;;;;;;21009613;28;20041;-77
2021/03/18 17:39:00;;;;;;;23.88;8.90;;;3.90;99.90;;;;;;20955652;28;20029;-79
2021/03/18 17:49:01;;;;;;;;;;;3.70;99.90;;;;;;20998084;28;20056;-78
2021/03/18 17:59:02;;;;;;;6.40;3.92;;;3.30;99.90;;;;;;20968237;28;19913;-79
2021/03/18 18:09:04;;;;;;;12.02;3.45;;;3.20;99.90;;;;;;20995162;28;20055;-79
2021/03/18 18:19:07;;;;;;;6.68;3.10;;;3.00;99.90;;;;;;21025221;28;20045;-80
2021/03/18 18:29:08;;;;;;;7.07;3.55;;;3.00;99.90;;;;;;21026573;28;20032;-77
2021/03/18 18:39:12;;;;;;;8.77;4.10;;;2.40;99.90;;;;;;21012919;28;20025;-79
2021/03/18 18:49:13;;;;;;;9.65;4.18;;;2.00;99.90;;;;;;21014809;28;20036;-77
2021/03/18 18:59:13;;;;;;;;;;;1.60;99.90;;;;;;21031276;28;20052;-79
2021/03/18 19:09:14;;;;;;;9.17;4.83;;;1.10;99.90;;;;;;21028324;28;19919;-77
2021/03/18 19:19:15;;;;;;;;;;;1.00;99.90;;;;;;21029215;28;20294;-78
2021/03/18 19:29:16;;;;;;;9.15;4.85;;;0.60;99.90;;;;;;21021230;28;20020;-77
2021/03/18 19:39:17;;;;;;;13.30;6.13;;;0.40;99.90;;;;;;21007312;28;20060;-76
2021/03/18 19:49:18;;;;;;;17.15;7.22;;;0.00;99.90;;;;;;21014547;28;20059;-77
2021/03/18 19:59:18;;;;;;;9.43;5.30;;;0.10;99.90;;;;;;21010720;28;20033;-76
2021/03/18 20:09:19;;;;;;;8.32;4.00;;;0.10;99.90;;;;;;21010933;28;20024;-77
2021/03/18 20:19:20;;;;;;;8.95;4.45;;;0.30;99.90;;;;;;21013657;28;20050;-78
2021/03/18 20:29:21;;;;;;;12.32;6.20;;;0.30;99.90;;;;;;21004770;28;20114;-78
2021/03/18 20:39:22;;;;;;;14.00;6.80;;;0.00;99.90;;;;;;21005299;28;20029;-77
2021/03/18 20:49:23;;;;;;;12.93;6.20;;;0.20;99.90;;;;;;21007826;28;20037;-75
2021/03/18 20:59:24;;;;;;;13.07;5.80;;;0.10;99.90;;;;;;20986901;28;20100;-78
2021/03/18 21:09:25;;;;;;;11.68;4.55;;;0.20;99.90;;;;;;20993582;28;20032;-78
2021/03/18 21:19:26;;;;;;;9.13;4.85;;;0.20;99.90;;;;;;21012275;28;20032;-78
2021/03/18 21:29:27;;;;;;;39.03;12.98;;;0.40;99.90;;;;;;21020432;28;20032;-80
2021/03/18 21:39:28;;;;;;;27.05;9.02;;;0.60;99.90;;;;;;21043531;28;20073;-79
2021/03/18 21:49:29;;;;;;;12.13;4.80;;;0.60;99.90;;;;;;21041097;28;20047;-78
2021/03/18 21:59:30;;;;;;;18.80;6.68;;;0.40;99.90;;;;;;21042788;28;20086;-78
2021/03/18 22:09:31;;;;;;;13.73;6.03;;;0.30;99.90;;;;;;21022042;28;20032;-78
2021/03/18 22:19:32;;;;;;;13.65;6.00;;;0.40;99.90;;;;;;20992852;28;20454;-77
2021/03/18 22:29:33;;;;;;;13.70;6.05;;;0.20;99.90;;;;;;21004579;28;20028;-78
2021/03/18 22:39:37;;;;;;;11.02;5.38;;;0.40;99.90;;;;;;20989689;28;20442;-78
2021/03/18 22:49:39;;;;;;;10.35;4.85;;;0.10;99.90;;;;;;21009580;28;20651;-78
2021/03/18 22:59:39;;;;;;;8.60;5.10;;;0.10;99.90;;;;;;21001185;28;20044;-78
2021/03/18 23:09:41;;;;;;;7.78;4.65;;;0.20;99.90;;;;;;20965645;28;20110;-78
2021/03/18 23:19:42;;;;;;;11.65;4.88;;;0.00;99.90;;;;;;20983718;28;20032;-79
2021/03/18 23:29:43;;;;;;;13.25;6.10;;;0.20;99.90;;;;;;20941262;28;20029;-79
2021/03/18 23:39:44;;;;;;;15.73;7.03;;;0.40;99.90;;;;;;20990727;28;20037;-78
2021/03/18 23:49:45;;;;;;;14.55;6.78;;;0.20;99.90;;;;;;20954419;28;20040;-79
2021/03/18 23:59:46;;;;;;;17.02;8.20;;;0.10;99.90;;;;;;20942233;28;20049;-78
